createdAt,value
2023-05-13T00:00:21.037Z,11.45
2023-05-13T00:05:44.148Z,11.34
2023-05-13T00:10:47.130Z,11.28
2023-05-13T00:15:50.120Z,11.25
2023-05-13T00:20:53.192Z,11.20
2023-05-13T00:25:56.158Z,11.18
2023-05-13T00:30:59.130Z,11.13
2023-05-13T00:36:02.377Z,11.07
2023-05-13T00:41:06.272Z,11.01
2023-05-13T00:46:09.450Z,10.99
2023-05-13T00:51:12.475Z,11.03
2023-05-13T00:56:21.813Z,11.06
2023-05-13T01:02:04.783Z,11.06
2023-05-13T01:07:23.334Z,11.03
2023-05-13T01:12:36.559Z,10.97
2023-05-13T01:18:10.981Z,10.90
2023-05-13T01:23:14.006Z,10.82
2023-05-13T01:28:16.972Z,10.80
2023-05-13T01:33:20.509Z,10.80
2023-05-13T01:38:24.945Z,10.82
2023-05-13T01:43:30.669Z,10.76
2023-05-13T01:48:33.597Z,10.63
2023-05-13T01:53:36.679Z,10.53
2023-05-13T01:58:39.640Z,10.45
2023-05-13T02:03:42.881Z,10.37
2023-05-13T02:08:45.881Z,10.32
2023-05-13T02:13:48.823Z,10.30
2023-05-13T02:18:51.793Z,10.36
2023-05-13T02:23:54.859Z,10.36
2023-05-13T02:28:59.933Z,10.25
2023-05-13T02:34:03.677Z,10.17
2023-05-13T02:39:06.496Z,10.25
2023-05-13T02:44:09.455Z,10.32
2023-05-13T02:49:14.660Z,10.37
2023-05-13T02:54:17.645Z,10.35
2023-05-13T02:59:20.690Z,10.34
2023-05-13T03:04:24.279Z,10.34
2023-05-13T03:09:27.069Z,10.26
2023-05-13T03:14:30.097Z,10.18
2023-05-13T03:19:38.108Z,10.10
2023-05-13T03:24:42.793Z,10.08
2023-05-13T03:29:45.829Z,10.09
2023-05-13T03:34:48.774Z,10.21
2023-05-13T03:39:52.073Z,10.74
2023-05-13T03:44:57.081Z,11.21
2023-05-13T03:49:59.992Z,11.88
2023-05-13T03:55:03.041Z,12.70
2023-05-13T04:00:07.569Z,13.45
2023-05-13T04:05:11.068Z,13.85
2023-05-13T04:10:15.607Z,14.03
2023-05-13T04:15:18.916Z,14.05
2023-05-13T04:20:24.882Z,14.02
2023-05-13T04:25:27.785Z,13.98
2023-05-13T04:30:31.324Z,14.06
2023-05-13T04:35:34.283Z,14.48
2023-05-13T04:40:37.382Z,15.05
2023-05-13T04:45:40.369Z,15.64
2023-05-13T04:50:47.605Z,16.19
2023-05-13T04:55:52.394Z,16.58
2023-05-13T05:00:55.369Z,16.90
2023-05-13T05:05:58.558Z,17.04
2023-05-13T05:11:01.894Z,17.24
2023-05-13T05:16:04.886Z,17.22
2023-05-13T05:21:07.791Z,17.07
2023-05-13T05:26:13.531Z,16.82
2023-05-13T05:31:16.600Z,16.58
2023-05-13T05:36:20.437Z,16.46
2023-05-13T05:41:23.415Z,16.45
2023-05-13T05:46:26.554Z,16.23
2023-05-13T05:51:29.574Z,16.04
2023-05-13T05:56:37.941Z,15.90
2023-05-13T06:01:41.186Z,15.71
2023-05-13T06:06:44.148Z,15.66
2023-05-13T06:11:47.095Z,15.57
2023-05-13T06:16:50.084Z,15.51
2023-05-13T06:21:53.149Z,15.56
2023-05-13T06:26:56.054Z,15.63
2023-05-13T06:32:04.987Z,15.73
2023-05-13T06:37:08.690Z,15.80
2023-05-13T06:42:13.063Z,16.14
2023-05-13T06:47:17.200Z,16.49
2023-05-13T06:52:20.157Z,16.80
2023-05-13T06:57:25.248Z,17.07
2023-05-13T07:02:35.567Z,17.33
2023-05-13T07:07:38.556Z,17.51
2023-05-13T07:12:41.569Z,17.68
2023-05-13T07:17:44.622Z,17.81
2023-05-13T07:22:51.008Z,17.94
2023-05-13T07:27:53.965Z,17.94
2023-05-13T07:32:57.006Z,18.00
2023-05-13T07:38:08.512Z,18.13
2023-05-13T07:43:11.855Z,18.20
2023-05-13T07:48:18.000Z,18.25
2023-05-13T07:53:21.343Z,18.32
2023-05-13T07:58:24.292Z,18.37
2023-05-13T08:03:27.332Z,18.40
2023-05-13T08:08:30.373Z,18.45
2023-05-13T08:13:33.421Z,18.51
2023-05-13T08:18:36.733Z,18.55
2023-05-13T08:23:45.362Z,18.56
2023-05-13T08:28:51.052Z,18.56
2023-05-13T08:33:56.722Z,18.55
2023-05-13T08:38:59.670Z,18.57
2023-05-13T08:44:06.824Z,18.59
2023-05-13T08:49:12.698Z,18.61
2023-05-13T08:54:17.648Z,18.65
2023-05-13T08:59:20.613Z,18.68
2023-05-13T09:04:25.434Z,18.73
2023-05-13T09:09:31.148Z,18.77
2023-05-13T09:14:35.032Z,18.83
2023-05-13T09:19:38.283Z,18.87
2023-05-13T09:24:53.732Z,18.92
2023-05-13T09:30:00.767Z,18.94
2023-05-13T09:35:17.187Z,18.94
2023-05-13T09:40:20.525Z,18.92
2023-05-13T09:45:23.997Z,18.91
2023-05-13T09:50:27.273Z,18.91
2023-05-13T09:55:33.332Z,18.94
2023-05-13T10:05:41.920Z,19.14
2023-05-13T10:10:46.594Z,19.21
2023-05-13T10:15:53.252Z,19.29
2023-05-13T10:20:57.087Z,19.38
2023-05-13T10:26:00.098Z,19.38
2023-05-13T10:31:03.106Z,19.43
2023-05-13T10:36:34.566Z,19.37
2023-05-13T10:42:07.947Z,19.09
2023-05-13T10:47:11.505Z,19.00
2023-05-13T10:52:15.352Z,19.09
2023-05-13T10:57:28.754Z,19.16
2023-05-13T11:02:32.435Z,19.29
2023-05-13T11:07:39.781Z,19.46
2023-05-13T11:12:42.700Z,19.58
2023-05-13T11:17:46.166Z,19.70
2023-05-13T11:22:51.446Z,19.65
2023-05-13T11:27:54.404Z,19.58
2023-05-13T11:32:58.806Z,19.41
2023-05-13T11:38:03.852Z,19.26
2023-05-13T11:43:11.232Z,19.23
2023-05-13T11:48:24.553Z,19.33
2023-05-13T11:53:27.732Z,19.46
2023-05-13T11:58:30.642Z,19.60
2023-05-13T12:03:33.883Z,19.72
2023-05-13T12:08:45.492Z,19.69
2023-05-13T12:13:48.605Z,19.70
2023-05-13T12:19:08.978Z,19.68
2023-05-13T12:24:20.262Z,19.57
2023-05-13T12:29:23.175Z,19.50
2023-05-13T12:34:39.359Z,19.39
2023-05-13T12:39:43.475Z,19.38
2023-05-13T12:44:47.184Z,19.48
2023-05-13T12:49:58.467Z,19.60
2023-05-13T12:55:04.518Z,19.79
2023-05-13T13:00:10.498Z,19.88
2023-05-13T13:05:13.548Z,20.03
2023-05-13T13:10:16.654Z,20.13
2023-05-13T13:15:22.906Z,20.24
2023-05-13T13:20:26.056Z,20.32
2023-05-13T13:25:29.226Z,20.41
2023-05-13T13:30:32.128Z,20.44
2023-05-13T13:35:34.896Z,20.41
2023-05-13T13:40:37.934Z,20.38
2023-05-13T13:45:40.893Z,20.34
2023-05-13T13:50:45.970Z,20.33
2023-05-13T13:55:50.387Z,20.11
2023-05-13T14:00:53.216Z,19.96
2023-05-13T14:05:56.210Z,19.92
2023-05-13T14:10:59.048Z,19.94
2023-05-13T14:16:02.044Z,19.99
2023-05-13T14:21:04.926Z,20.05
2023-05-13T14:26:09.636Z,20.02
2023-05-13T14:31:12.613Z,20.01
2023-05-13T14:36:16.426Z,20.03
2023-05-13T14:41:23.217Z,20.04
2023-05-13T14:46:26.231Z,19.99
2023-05-13T14:51:29.352Z,19.97
2023-05-13T14:56:32.323Z,19.97
2023-05-13T15:01:35.245Z,19.93
2023-05-13T15:06:39.003Z,19.90
2023-05-13T15:11:45.203Z,19.89
2023-05-13T15:16:48.584Z,19.88
2023-05-13T15:21:51.556Z,19.85
2023-05-13T15:26:54.452Z,19.82
2023-05-13T15:31:57.926Z,19.80
2023-05-13T15:37:00.849Z,19.75
2023-05-13T15:42:04.209Z,19.71
2023-05-13T15:47:07.380Z,19.66
2023-05-13T15:52:10.424Z,19.61
2023-05-13T15:57:13.271Z,19.58
2023-05-13T16:02:18.441Z,19.54
2023-05-13T16:07:21.399Z,19.48
2023-05-13T16:12:24.323Z,19.43
2023-05-13T16:17:27.376Z,19.37
2023-05-13T16:22:38.147Z,19.31
2023-05-13T16:27:43.244Z,19.24
2023-05-13T16:32:49.048Z,19.16
2023-05-13T16:37:54.657Z,19.08
2023-05-13T16:43:01.009Z,19.01
2023-05-13T16:48:06.595Z,18.94
2023-05-13T16:53:09.585Z,18.87
2023-05-13T16:58:12.539Z,18.82
2023-05-13T17:03:15.777Z,18.74
2023-05-13T17:08:21.381Z,18.67
2023-05-13T17:13:24.286Z,18.57
2023-05-13T17:18:27.293Z,18.47
2023-05-13T17:23:30.788Z,18.35
2023-05-13T17:28:34.099Z,18.24
2023-05-13T17:33:37.108Z,18.13
2023-05-13T17:38:40.169Z,18.02
2023-05-13T17:43:42.951Z,17.90
2023-05-13T17:48:45.921Z,17.78
2023-05-13T17:53:48.995Z,17.65
2023-05-13T17:58:51.876Z,17.51
2023-05-13T18:03:55.486Z,17.38
2023-05-13T18:08:58.471Z,17.23
2023-05-13T18:14:01.377Z,17.09
2023-05-13T18:19:04.385Z,16.96
2023-05-13T18:24:08.349Z,16.84
2023-05-13T18:29:11.302Z,16.71
2023-05-13T18:34:14.197Z,16.59
2023-05-13T18:39:17.235Z,16.46
2023-05-13T18:44:20.385Z,16.32
2023-05-13T18:49:28.315Z,16.17
2023-05-13T18:54:33.970Z,16.05
2023-05-13T18:59:36.896Z,15.95
2023-05-13T19:04:39.895Z,15.83
2023-05-13T19:09:42.912Z,15.72
2023-05-13T19:14:45.807Z,15.63
2023-05-13T19:19:51.108Z,15.52
2023-05-13T19:24:54.082Z,15.40
2023-05-13T19:30:04.999Z,15.30
2023-05-13T19:35:08.655Z,15.21
2023-05-13T19:40:11.785Z,15.15
2023-05-13T19:45:15.057Z,15.08
2023-05-13T19:50:18.266Z,15.00
2023-05-13T19:55:21.160Z,14.91
2023-05-13T20:00:24.464Z,14.83
2023-05-13T20:05:27.640Z,14.73
2023-05-13T20:10:30.537Z,14.64
2023-05-13T20:15:33.472Z,14.53
2023-05-13T20:20:36.468Z,14.47
2023-05-13T20:25:39.360Z,14.38
2023-05-13T20:30:43.002Z,14.30
2023-05-13T20:35:46.469Z,14.25
2023-05-13T20:40:52.099Z,14.19
2023-05-13T20:45:55.072Z,14.14
2023-05-13T20:51:05.937Z,14.06
2023-05-13T20:56:10.144Z,13.98
2023-05-13T21:01:15.590Z,13.91
2023-05-13T21:06:21.455Z,13.81
2023-05-13T21:11:24.399Z,13.74
2023-05-13T21:16:27.465Z,13.69
2023-05-13T21:21:33.980Z,13.62
2023-05-13T21:26:36.937Z,13.56
2023-05-13T21:31:39.893Z,13.45
2023-05-13T21:36:42.993Z,13.37
2023-05-13T21:41:47.478Z,13.32
2023-05-13T21:46:50.406Z,13.23
2023-05-13T21:51:53.339Z,13.13
2023-05-13T21:56:56.254Z,13.09
2023-05-13T22:01:59.267Z,13.06
2023-05-13T22:07:02.766Z,13.01
2023-05-13T22:12:06.086Z,12.97
2023-05-13T22:17:10.325Z,12.97
2023-05-13T22:22:13.744Z,12.90
2023-05-13T22:27:17.161Z,12.86
2023-05-13T22:32:20.066Z,12.83
2023-05-13T22:37:22.996Z,12.77
2023-05-13T22:42:27.391Z,12.71
2023-05-13T22:47:30.344Z,12.65
2023-05-13T22:52:33.294Z,12.60
2023-05-13T22:57:36.278Z,12.56
2023-05-13T23:02:39.234Z,12.55
2023-05-13T23:07:42.178Z,12.57
2023-05-13T23:12:45.142Z,12.63
2023-05-13T23:17:48.218Z,12.67
2023-05-13T23:22:51.633Z,12.65
2023-05-13T23:27:54.523Z,12.63
2023-05-13T23:32:57.509Z,12.62
2023-05-13T23:38:00.941Z,12.64
2023-05-13T23:43:03.896Z,12.57
2023-05-13T23:48:07.065Z,12.40
2023-05-13T23:53:10.003Z,12.35
2023-05-13T23:58:12.925Z,12.40
